Carson Valley, Nevada Weather observations

Data are for 10 minute period ending at time listed.
 Day   Time   Solar   Ave.   Ave.  Ave.  Vector  Max.   Baro.   Total    
  of    of     Rad.   Air    Rel.  Wind   Wind   Wind  Press.  Precip.   
Year   Day            Temp.  Hum.  Speed  Dir.   Gust                    
2014   (PST)  Kw/m2    F      %     mph   deg.    mph    mb.     in.     
-------------------------------------------------------------------------
 331   11:50   0.52   70.5    14    7.6   117    15.4   861.6    0.00 
 331   12:00   0.62   71.6    13    7.0    97    12.5   861.5    0.00 
 331   12:10   0.60   72.3    13    8.3   154    14.4   861.5    0.00 
 331   12:20   0.59   71.2    13    8.5   272    19.9   861.2    0.00 
 331   12:30   0.62   71.8    13    5.4   148    12.3   861.1    0.00 
 331   12:40   0.61   72.0    13    4.5   232    15.7   861.1    0.00 
 331   12:50   0.53   71.1    13    7.7   256    15.8   860.9    0.00 
 331   13:00   0.52   71.1    13   10.6   246    19.4   860.7    0.00 
 331   13:10   0.49   71.4    13   11.0   233    25.1   860.7    0.00 
 331   13:20   0.53   70.8    13   11.3   236    27.0   860.6    0.00 
 331   13:30   0.52   71.2    13   12.1   250    19.4   860.4    0.00 
 331   13:40   0.47   71.5    13   12.5   224    19.6   860.3    0.00 
 331   13:50   0.44   71.1    12    8.8   201    20.6   860.3    0.00 
 331   14:00   0.44   71.0    12    7.2   245    18.2   860.2    0.00 
 331   14:10   0.40   70.4    13   12.4   229    21.0   860.2    0.00 
 331   14:20   0.38   70.4    13    9.2   210    20.1   860.2    0.00 
 331   14:30   0.34   70.5    13    5.5   242    14.1   860.1    0.00 
 331   14:40   0.34   70.2    13    8.5   242    17.6   860.1    0.00 
 331   14:50   0.29   70.2    13    7.8   208    15.6   860.1    0.00 
 331   15:00   0.25   69.4    14    6.9   230    11.1   860.0    0.00 
 331   15:10   0.21   69.1    13    8.7   242    15.0   860.0    0.00 
 331   15:20   0.20   68.4    14    9.2   220    21.3   860.0    0.00 
 331   15:30   0.15   67.6    14    8.9   213    16.3   860.1    0.00 
 331   15:40   0.15   67.5    14    9.4   206    19.4   860.1    0.00 
 331   15:50   0.12   67.6    13    7.8   212    18.6   860.1    0.00 
 331   16:00   0.02   66.3    13    9.9   201    22.9   860.1    0.00 
 331   16:10   0.01   64.3    15    6.7   209    14.4   860.1    0.00 
 331   16:20   0.01   61.8    16    4.7   202     8.9   860.0    0.00 
 331   16:30   0.01   61.1    17    3.1   208     7.8   859.9    0.00 
 331   16:40   0.01   60.0    17    6.4   215    13.2   859.8    0.00 
 331   16:50   0.00   59.7    18    5.5   216    13.3   859.8    0.00 
 331   17:00   0.00   58.5    19    6.3   204     9.1   859.7    0.00 
 331   17:10   0.00   58.8    18    8.8   172    13.3   859.8    0.00 
 331   17:20   0.00   61.1    16   10.6   194    19.2   859.7    0.00 
 331   17:30   0.00   61.2    16    9.3   200    15.3   859.7    0.00 
 331   17:40   0.00   59.0    17    7.6   183    12.3   859.7    0.00 
 331   17:50   0.00   57.4    19    7.7   178    10.6   859.7    0.00 
 331   18:00   0.00   53.3    24    7.1   183    13.2   859.5    0.00 
 331   18:10   0.00   53.7    24    5.4   172     8.6   859.4    0.00 
 331   18:20   0.00   51.8    26    6.5   202     9.1   859.3    0.00 
 331   18:30   0.00   53.0    26    7.3   194    10.9   859.1    0.00 
 331   18:40   0.00   55.2    24    7.3   209    12.6   859.1    0.00 
 331   18:50   0.00   54.0    25    6.6   204    10.2   859.1    0.00 
 331   19:00   0.00   53.8    25    7.3   208    14.1   859.0    0.00 
 331   19:10   0.00   58.6    20   10.5   196    16.2   859.0    0.00 
 331   19:20   0.00   57.8    22    8.0   197    12.6   859.0    0.00 
 331   19:30   0.00   55.2    24    7.9   209    11.8   859.0    0.00 
 331   19:40   0.00   52.0    27    7.6   206    10.0   858.9    0.00 
 331   19:50   0.00   52.3    26    8.1   214    11.1   858.9    0.00 
 331   20:00   0.00   55.6    23    8.5   210    15.1   858.8    0.00 
 331   20:10   0.00   55.2    24    7.4   198    11.1   858.8    0.00 
 331   20:20   0.00   55.7    23    7.9   202    14.5   858.7    0.00 
 331   20:30   0.00   55.1    23    7.5   216    12.3   858.6    0.00 
 331   20:40   0.00   53.3    25    7.4   219    15.2   858.6    0.00 
 331   20:50   0.00   56.2    22    9.1   205    15.9   858.5    0.00 
 331   21:00   0.00   56.0    22    8.6   210    12.2   858.5    0.00 
 331   21:10   0.00   56.7    22    9.3   197    14.6   858.5    0.00 
 331   21:20   0.00   57.2    21    9.9   204    22.7   858.4    0.00 
 331   21:30   0.00   59.4    19    9.8   188    21.6   858.4    0.00 
 331   21:40   0.00   55.2    23    6.9   220    10.7   858.4    0.00 
 331   21:50   0.00   55.2    23    7.8   191    11.9   858.4    0.00 
 331   22:00   0.00   54.8    23    6.8   203    10.7   858.2    0.00 
 331   22:10   0.00   53.6    24    6.9   194    10.3   858.2    0.00 
 331   22:20   0.00   52.4    24    5.7   195    10.4   858.1    0.00 
 331   22:30   0.00   53.4    23    5.7   209     9.2   858.0    0.00 
 331   22:40   0.00   51.9    25    6.2   184    10.2   858.0    0.00 
 331   22:50   0.00   54.3    22    7.8   171    12.9   858.0    0.00 
 331   23:00   0.00   53.5    22    5.7   196    10.3   858.0    0.00 
 331   23:10   0.00   51.7    24    5.6   231     9.3   858.0    0.00 
 331   23:20   0.00   52.8    23    3.6   213     7.9   858.0    0.00 
 331   23:30   0.00   51.0    25    4.2   238     6.4   858.0    0.00 
 331   23:40   0.00   51.8    24    2.8   232     7.6   857.9    0.00 
 331   23:50   0.00   51.6    25    2.6   179     5.8   857.8    0.00 
 332    0:00   0.00   50.9    25    2.9   283     6.1   857.8    0.00 
 332    0:10   0.00   50.7    25    3.9   258     7.6   857.7    0.00 
 332    0:20   0.00   50.7    26    7.1   197    12.3   857.7    0.00 
 332    0:30   0.00   54.1    23    9.0   168    14.5   857.6    0.00 
 332    0:40   0.00   52.5    24    5.9   174     8.4   857.5    0.00 
 332    0:50   0.00   51.8    23    7.4   163    11.0   857.4    0.00 
 332    1:00   0.00   52.4    22    8.4   159    12.4   857.3    0.00 
 332    1:10   0.00   53.0    21    8.8   211    18.0   857.3    0.00 
 332    1:20   0.00   55.4    17    8.4   164    14.9   857.3    0.00 
 332    1:30   0.00   55.4    15    8.5   162    12.2   857.3    0.00 
 332    1:40   0.00   54.8    16    7.2   168    12.5   857.4    0.00 
 332    1:50   0.00   52.5    18    9.4   154    14.3   857.3    0.00 
 332    2:00   0.00   56.2    12   10.3   178    14.8   857.2    0.00 
 332    2:10   0.00   55.1    13    7.6   168    11.7   857.1    0.00 
 332    2:20   0.00   54.8    13    9.8   171    18.0   857.1    0.00 
 332    2:30   0.00   56.9    11    8.5   165    16.7   857.0    0.00 
 332    2:40   0.00   53.7    14    8.0   174    10.4   857.1    0.00 
 332    2:50   0.00   53.2    13    9.1   164    14.2   856.9    0.00 
 332    3:00   0.00   55.1    12    8.9   172    14.5   856.8    0.00 
 332    3:10   0.00   54.0    12    8.9   174    15.2   856.8    0.00 
 332    3:20   0.00   56.0    10   10.5   174    20.1   856.6    0.00 
 332    3:30   0.00   54.0    11    9.3   166    19.2   856.6    0.00 
 332    3:40   0.00   56.5    10   10.6   166    20.0   856.4    0.00 
 332    3:50   0.00   56.9     9    9.6   185    19.2   856.4    0.00 
 332    4:00   0.00   55.3    10    9.7   166    15.4   856.4    0.00 
 332    4:10   0.00   54.2    10    7.1   173    12.6   856.3    0.00 
 332    4:20   0.00   51.8    10    8.3   177    14.1   856.2    0.00 
 332    4:30   0.00   57.5     8   13.2   184    24.1   856.0    0.00 
 332    4:40   0.00   57.0     9    9.6   177    13.7   856.0    0.00 
 332    4:50   0.00   55.3    10   10.4   180    19.8   856.0    0.00 
 332    5:00   0.00   56.9     8   10.2   191    19.8   855.9    0.00 
 332    5:10   0.00   56.0     9    7.7   173    19.0   855.8    0.00 
 332    5:20   0.00   54.3    10    6.7   185     9.9   855.8    0.00 
 332    5:30   0.00   53.2    10    6.2   181    15.9   855.8    0.00 
 332    5:40   0.00   55.0    10    5.3   204    12.1   855.6    0.00 
 332    5:50   0.00   56.6     7    8.4   234    18.0   855.4    0.00 
 332    6:00   0.00   55.0     9    7.5   199    19.6   855.5    0.00 
 332    6:10   0.00   57.9     8    8.1   198    14.6   855.5    0.00 
 332    6:20   0.00   56.8     7    3.3   184     7.8   855.4    0.00 
 332    6:30   0.00   55.1    10    5.0   194     9.6   855.4    0.00 
 332    6:40   0.00   55.8     8    2.1   292     5.9   855.4    0.00 
 332    6:50   0.00   53.9     9    4.0   246     6.9   855.4    0.00 
 332    7:00   0.00   56.0     8    2.9   223     7.2   855.4    0.00 
 332    7:10   0.00   57.2     7    3.3   220     7.8   855.2    0.00 
 332    7:20   0.01   56.3     8    7.0   225    15.0   855.1    0.00 
 332    7:30   0.01   54.5    10    7.0   196    10.8   855.2    0.00 
 332    7:40   0.03   56.0     9    4.7   237     9.6   855.3    0.00 
 332    7:50   0.03   56.2     8    7.7   217    14.0   855.3    0.00 
 332    8:00   0.04   56.8     8    8.6   238    17.2   855.4    0.00 
 332    8:10   0.14   58.2     7   12.3   242    19.6   855.4    0.00 
 332    8:20   0.21   59.8     6   17.1   229    28.6   855.4    0.00 
 332    8:30   0.24   60.0     7   11.2   224    19.4   855.8    0.00 
 332    8:40   0.27   60.1     6   19.7   242    28.7   855.8    0.00 
 332    8:50   0.29   60.2     6   22.6   242    33.1   855.7    0.00 
 332    9:00   0.32   60.5     6   21.9   237    33.3   855.8    0.00 
 332    9:10   0.34   60.7     6   20.9   233    32.8   856.0    0.00 
 332    9:20   0.37   60.9     6   21.0   237    33.0   855.9    0.00 
 332    9:30   0.39   61.0     6   23.3   241    35.5   855.9    0.00 
 332    9:40   0.41   61.5     6   17.5   234    28.7   856.0    0.00 
 332    9:50   0.43   61.7     6   17.3   239    27.6   856.0    0.00 
 332   10:00   0.45   61.9     6   21.8   245    33.4   855.9    0.00 
 332   10:10   0.47   62.1     6   22.1   243    33.2   855.9    0.00 
 332   10:20   0.48   62.3     6   22.4   248    32.4   855.7    0.00 
 332   10:30   0.50   62.5     6   22.6   247    34.5   855.5    0.00 
 332   10:40   0.51   62.8     6   22.3   242    35.4   855.3    0.00 
 332   10:50   0.52   63.5     7   17.4   230    25.4   855.1    0.00 
 332   11:00   0.53   63.8     6   17.1   239    27.0   854.9    0.00 
 332   11:10   0.53   64.2     6   20.0   239    33.8   854.7    0.00 
 332   11:20   0.54   64.4     6   18.7   241    28.0   854.5    0.00 
 332   11:30   0.54   64.5     6   20.5   246    32.4   854.4    0.00 
 332   11:40   0.55   64.6     6   20.1   251    29.9   854.3    0.00 

Return to Carson Valley graphs page.


Western Regional Climate Center,wrcc@dri.edu